Terminal Aerodrome Forecast
Issued by NWS Wilmington, OH

Current Version | Previous Version | Graphics & Text | Print | Product List | Glossary On
Versions: 1 2 3 4 5 6 7 8 9 10 11 12 13 14 15 16 17 18 19 20 21 22 23
000
FTUS41 KILN 171000 AAB
TAFILN
TAF AMD
KILN 171041Z 1711/1806 27013KT P6SM VCSH OVC012
     FM171400 27012G18KT P6SM OVC015
     FM172200 27010KT P6SM OVC018=

USA.gov is the U.S. government's official web portal to all federal, state and local government web resources and services.